Time;durP1;ratioP1;P1;durP2;ratioP2;P2;SDS_P1;SDS_P2;PMS_P1;PMS_P2;Temp;Humidity;BMP_temperature;BMP_pressure;BME280_temperature;BME280_humidity;BME280_pressure;Samples;Min_cycle;Max_cycle;Signal;HPM_P1;HPM_P2
2023/05/30 00:01:35;;;;;;;3.30;3.00;;;;;;;;;;5032274;28;20461;-77
2023/05/30 00:04:01;;;;;;;3.08;2.78;;;;;;;;;;5032022;28;20903;-77
2023/05/30 00:06:27;;;;;;;3.53;2.80;;;;;;;;;;5014761;28;20387;-77
2023/05/30 00:08:53;;;;;;;3.25;2.95;;;;;;;;;;5032113;28;20417;-77
2023/05/30 00:11:19;;;;;;;3.30;2.90;;;;;;;;;;5014395;28;20403;-77
2023/05/30 00:13:45;;;;;;;3.50;2.95;;;;;;;;;;5031989;28;20449;-77
2023/05/30 00:16:12;;;;;;;3.40;3.10;;;;;;;;;;5031466;28;20419;-77
2023/05/30 00:18:39;;;;;;;3.50;3.05;;;;;;;;;;5031972;28;20474;-77
2023/05/30 00:21:05;;;;;;;3.00;2.80;;;;;;;;;;5031999;28;20425;-77
2023/05/30 00:23:32;;;;;;;5.47;3.28;;;;;;;;;;5014238;28;20387;-76
2023/05/30 00:25:59;;;;;;;3.42;3.13;;;;;;;;;;5032016;28;20390;-77
2023/05/30 00:28:25;;;;;;;3.83;3.00;;;;;;;;;;5031750;28;20474;-76
2023/05/30 00:30:52;;;;;;;6.47;3.70;;;;;;;;;;5031579;28;20434;-77
2023/05/30 00:33:18;;;;;;;5.00;4.50;;;;;;;;;;5014093;28;20457;-77
2023/05/30 00:35:44;;;;;;;4.50;4.10;;;;;;;;;;5031393;28;20880;-76
2023/05/30 00:38:10;;;;;;;5.20;4.22;;;;;;;;;;5023115;28;20467;-76
2023/05/30 00:40:36;;;;;;;5.53;4.10;;;;;;;;;;5031177;28;20383;-76
2023/05/30 00:43:02;;;;;;;4.60;3.93;;;;;;;;;;5030982;28;20398;-76
2023/05/30 00:45:28;;;;;;;5.28;3.70;;;;;;;;;;5031491;28;20841;-76
2023/05/30 00:47:54;;;;;;;4.13;3.80;;;;;;;;;;5031340;28;20402;-76
2023/05/30 00:50:21;;;;;;;3.83;3.50;;;;;;;;;;5013812;28;20457;-77
2023/05/30 00:52:48;;;;;;;4.28;3.40;;;;;;;;;;5031261;28;20394;-77
2023/05/30 00:55:17;;;;;;;4.53;3.60;;;;;;;;;;5030949;28;20805;-77
2023/05/30 00:57:43;;;;;;;3.92;3.63;;;;;;;;;;5013520;28;20490;-77
2023/05/30 01:00:10;;;;;;;3.70;3.38;;;;;;;;;;5031131;28;20371;-76
2023/05/30 01:02:37;;;;;;;3.80;3.50;;;;;;;;;;5030976;28;20549;-76
2023/05/30 01:05:03;;;;;;;3.72;3.42;;;;;;;;;;5031023;28;20382;-76
2023/05/30 01:07:29;;;;;;;3.60;3.30;;;;;;;;;;5031320;28;20386;-77
2023/05/30 01:09:55;;;;;;;3.40;3.10;;;;;;;;;;5030784;28;20875;-76
2023/05/30 01:12:27;;;;;;;3.45;3.15;;;;;;;;;;5030992;28;20383;-77
2023/05/30 01:15:14;;;;;;;3.50;3.20;;;;;;;;;;5031212;28;20383;-76
2023/05/30 01:17:50;;;;;;;5.27;3.40;;;;;;;;;;5031147;28;20429;-77
2023/05/30 01:20:20;;;;;;;3.33;3.00;;;;;;;;;;5031219;28;20891;-77
2023/05/30 01:23:08;;;;;;;3.38;3.08;;;;;;;;;;5013332;28;20787;-77
2023/05/30 01:25:35;;;;;;;4.40;3.83;;;;;;;;;;5031000;28;20387;-76
2023/05/30 01:28:10;;;;;;;4.43;3.08;;;;;;;;;;5030704;28;20391;-76
2023/05/30 01:30:37;;;;;;;3.30;3.00;;;;;;;;;;5025613;28;20779;-77
2023/05/30 01:33:04;;;;;;;4.18;3.88;;;;;;;;;;5026834;28;20532;-77
2023/05/30 01:35:30;;;;;;;3.85;3.33;;;;;;;;;;5017579;28;20432;-76
2023/05/30 01:37:56;;;;;;;4.07;3.10;;;;;;;;;;5028240;28;20486;-77
2023/05/30 01:40:24;;;;;;;3.38;3.08;;;;;;;;;;5012210;28;20403;-76
2023/05/30 01:42:53;;;;;;;3.75;3.08;;;;;;;;;;5030722;28;20894;-76
2023/05/30 01:45:24;;;;;;;3.22;2.92;;;;;;;;;;5030750;28;20399;-77
2023/05/30 01:47:58;;;;;;;3.33;2.95;;;;;;;;;;5029336;28;20465;-76
2023/05/30 01:50:29;;;;;;;3.47;3.07;;;;;;;;;;5030780;28;20504;-76
2023/05/30 01:52:59;;;;;;;3.30;3.00;;;;;;;;;;5013047;28;20807;-76
2023/05/30 01:55:26;;;;;;;3.50;3.20;;;;;;;;;;5030172;28;20915;-77
2023/05/30 01:57:53;;;;;;;4.75;3.17;;;;;;;;;;5030743;28;20407;-77
2023/05/30 02:00:20;;;;;;;3.03;2.83;;;;;;;;;;5030442;28;20390;-76
2023/05/30 02:02:46;;;;;;;3.15;2.88;;;;;;;;;;5030574;28;20379;-76
2023/05/30 02:05:12;;;;;;;3.42;3.08;;;;;;;;;;5030386;28;20430;-76
2023/05/30 02:07:38;;;;;;;3.75;3.38;;;;;;;;;;5030663;28;20384;-76
2023/05/30 02:10:05;;;;;;;4.32;2.92;;;;;;;;;;5012708;28;20876;-77
2023/05/30 02:12:31;;;;;;;2.90;2.60;;;;;;;;;;5030140;28;20810;-77
2023/05/30 02:14:57;;;;;;;3.50;2.78;;;;;;;;;;5030518;28;20471;-77
2023/05/30 02:17:24;;;;;;;3.43;3.13;;;;;;;;;;5029804;28;20438;-77
2023/05/30 02:19:50;;;;;;;3.25;2.95;;;;;;;;;;5030653;28;20405;-77
2023/05/30 02:22:16;;;;;;;4.10;3.08;;;;;;;;;;5031470;28;20801;-77
2023/05/30 02:24:42;;;;;;;3.40;3.10;;;;;;;;;;5016187;28;20382;-77
2023/05/30 02:27:08;;;;;;;2.97;2.78;;;;;;;;;;5033879;28;20470;-78
2023/05/30 02:29:35;;;;;;;3.30;3.00;;;;;;;;;;5033891;28;20436;-78
2023/05/30 02:32:01;;;;;;;3.00;2.80;;;;;;;;;;5033472;28;20441;-78
2023/05/30 02:34:27;;;;;;;4.88;3.10;;;;;;;;;;5033667;28;20387;-76
2023/05/30 02:36:53;;;;;;;3.03;2.80;;;;;;;;;;5033360;28;20973;-76
2023/05/30 02:39:19;;;;;;;3.13;2.83;;;;;;;;;;5033678;28;20375;-77
2023/05/30 02:41:45;;;;;;;3.35;3.05;;;;;;;;;;5033542;28;20740;-77
2023/05/30 02:44:11;;;;;;;3.72;3.00;;;;;;;;;;5033472;28;20380;-77
2023/05/30 02:46:37;;;;;;;3.72;3.40;;;;;;;;;;5033105;28;20386;-77
2023/05/30 02:49:03;;;;;;;3.20;2.90;;;;;;;;;;5015624;28;21128;-77
2023/05/30 02:51:29;;;;;;;3.28;3.00;;;;;;;;;;5033091;28;20387;-78
2023/05/30 02:53:55;;;;;;;3.72;3.13;;;;;;;;;;5033433;28;20398;-77
2023/05/30 02:56:22;;;;;;;3.67;3.20;;;;;;;;;;5033174;28;20427;-78
2023/05/30 02:58:49;;;;;;;4.32;2.92;;;;;;;;;;5015370;28;20397;-78
2023/05/30 03:01:15;;;;;;;3.60;3.00;;;;;;;;;;5033318;28;20390;-78
2023/05/30 03:03:41;;;;;;;4.70;3.20;;;;;;;;;;5015656;28;20388;-78
2023/05/30 03:06:08;;;;;;;10.27;3.03;;;;;;;;;;5033111;28;20387;-78
2023/05/30 03:08:35;;;;;;;3.10;2.70;;;;;;;;;;5018641;28;20432;-78
2023/05/30 03:11:01;;;;;;;3.47;3.17;;;;;;;;;;5027936;28;20742;-78
2023/05/30 03:13:27;;;;;;;4.03;3.17;;;;;;;;;;5005735;28;20385;-78
2023/05/30 03:15:53;;;;;;;3.97;2.97;;;;;;;;;;5031878;28;20395;-78
2023/05/30 03:18:19;;;;;;;3.70;3.30;;;;;;;;;;5032846;28;20978;-78
2023/05/30 03:20:46;;;;;;;3.55;3.20;;;;;;;;;;5028966;28;20466;-78
2023/05/30 03:23:12;;;;;;;4.13;2.70;;;;;;;;;;5022491;28;20384;-77
2023/05/30 03:25:38;;;;;;;3.33;3.03;;;;;;;;;;5028433;28;20398;-77
2023/05/30 03:28:07;;;;;;;3.90;3.10;;;;;;;;;;5020459;28;20379;-78
2023/05/30 03:30:33;;;;;;;3.42;3.13;;;;;;;;;;5032405;28;20429;-77
2023/05/30 03:32:59;;;;;;;4.10;3.20;;;;;;;;;;5030780;28;20384;-78
2023/05/30 03:35:26;;;;;;;3.37;2.90;;;;;;;;;;5032342;28;20383;-76
2023/05/30 03:37:51;;;;;;;3.58;3.10;;;;;;;;;;5028515;28;20428;-77
2023/05/30 03:40:17;;;;;;;3.70;3.08;;;;;;;;;;5032200;28;20873;-76
2023/05/30 03:42:44;;;;;;;3.25;2.95;;;;;;;;;;5025266;28;20426;-78
2023/05/30 03:45:10;;;;;;;3.70;2.80;;;;;;;;;;5021992;28;20471;-78
2023/05/30 03:47:36;;;;;;;4.10;2.70;;;;;;;;;;5026577;28;20379;-78
2023/05/30 03:50:03;;;;;;;3.23;2.93;;;;;;;;;;5013737;28;20860;-78
2023/05/30 03:52:29;;;;;;;3.20;2.92;;;;;;;;;;5030686;28;20387;-78
2023/05/30 03:54:55;;;;;;;3.35;3.05;;;;;;;;;;5030746;28;20422;-78
2023/05/30 03:57:21;;;;;;;3.42;3.13;;;;;;;;;;5031345;28;20829;-78
2023/05/30 03:59:47;;;;;;;3.13;2.83;;;;;;;;;;5032012;28;20399;-77
2023/05/30 04:02:14;;;;;;;3.35;3.05;;;;;;;;;;5032246;28;20426;-78
2023/05/30 04:04:40;;;;;;;4.13;3.10;;;;;;;;;;5031690;28;20386;-77
2023/05/30 04:07:07;;;;;;;3.53;2.85;;;;;;;;;;5032161;28;20395;-78
2023/05/30 04:09:33;;;;;;;3.28;2.97;;;;;;;;;;5032100;28;20414;-77
2023/05/30 04:11:59;;;;;;;3.67;2.93;;;;;;;;;;5031931;28;20422;-77
2023/05/30 04:14:25;;;;;;;4.20;2.70;;;;;;;;;;5032003;28;20864;-77
2023/05/30 04:16:51;;;;;;;4.60;2.95;;;;;;;;;;5031907;28;20413;-78
2023/05/30 04:19:17;;;;;;;4.05;2.90;;;;;;;;;;5031832;28;20470;-78
2023/05/30 04:21:43;;;;;;;3.25;2.95;;;;;;;;;;5031872;28;20410;-77
2023/05/30 04:24:09;;;;;;;2.70;2.50;;;;;;;;;;5031696;28;20383;-77
2023/05/30 04:26:36;;;;;;;3.15;2.85;;;;;;;;;;5031865;28;20387;-77
2023/05/30 04:29:02;;;;;;;4.75;3.38;;;;;;;;;;5031585;28;20433;-78
2023/05/30 04:31:28;;;;;;;3.00;2.67;;;;;;;;;;5031762;28;20391;-77
2023/05/30 04:33:55;;;;;;;3.30;3.00;;;;;;;;;;5031611;28;20387;-78
2023/05/30 04:36:21;;;;;;;3.70;3.30;;;;;;;;;;5031631;28;20407;-77
2023/05/30 04:38:48;;;;;;;3.70;3.38;;;;;;;;;;5031635;28;20375;-78
2023/05/30 04:41:19;;;;;;;3.40;3.10;;;;;;;;;;5030863;28;20386;-77
2023/05/30 04:43:52;;;;;;;4.75;3.40;;;;;;;;;;5031578;28;20375;-78
2023/05/30 04:46:21;;;;;;;3.13;2.92;;;;;;;;;;5031121;28;20385;-78
2023/05/30 04:48:48;;;;;;;4.45;3.05;;;;;;;;;;5031511;28;20873;-78
2023/05/30 04:51:14;;;;;;;4.32;3.20;;;;;;;;;;5031590;28;20390;-78
2023/05/30 04:53:40;;;;;;;3.97;3.00;;;;;;;;;;5031295;28;20745;-77
2023/05/30 04:56:06;;;;;;;3.22;2.90;;;;;;;;;;5030985;28;20489;-78
2023/05/30 04:58:32;;;;;;;3.30;3.00;;;;;;;;;;5031172;28;20375;-77
2023/05/30 05:00:58;;;;;;;3.65;3.22;;;;;;;;;;5013331;28;20393;-78
2023/05/30 05:03:25;;;;;;;3.50;3.20;;;;;;;;;;5031231;28;20813;-78
2023/05/30 05:05:50;;;;;;;3.45;2.92;;;;;;;;;;5031103;28;20382;-78
2023/05/30 05:08:17;;;;;;;4.30;3.42;;;;;;;;;;5031274;28;20398;-78
2023/05/30 05:10:43;;;;;;;4.47;3.30;;;;;;;;;;5013348;28;20387;-78
2023/05/30 05:13:09;;;;;;;3.42;3.10;;;;;;;;;;5031243;28;20978;-78
2023/05/30 05:15:35;;;;;;;4.15;3.40;;;;;;;;;;5029306;28;20760;-78
2023/05/30 05:18:01;;;;;;;3.88;2.90;;;;;;;;;;5024079;28;20404;-78
2023/05/30 05:20:27;;;;;;;3.22;2.90;;;;;;;;;;5025579;28;20394;-78
2023/05/30 05:22:55;;;;;;;4.55;3.40;;;;;;;;;;5029835;28;20386;-77
2023/05/30 05:25:21;;;;;;;3.30;3.00;;;;;;;;;;5023370;28;20454;-77
2023/05/30 05:27:47;;;;;;;4.25;3.05;;;;;;;;;;5011833;28;20388;-77
2023/05/30 05:30:13;;;;;;;5.03;3.35;;;;;;;;;;5030150;28;21068;-77
2023/05/30 05:32:40;;;;;;;3.70;3.28;;;;;;;;;;5030219;28;20387;-77
2023/05/30 05:35:09;;;;;;;5.17;3.23;;;;;;;;;;5030450;28;20814;-79
2023/05/30 05:37:35;;;;;;;4.78;3.10;;;;;;;;;;5030132;28;20411;-79
2023/05/30 05:40:04;;;;;;;4.13;3.58;;;;;;;;;;5030047;28;20391;-78
2023/05/30 05:42:30;;;;;;;3.95;3.40;;;;;;;;;;5025614;28;20402;-79
2023/05/30 05:44:56;;;;;;;3.72;3.38;;;;;;;;;;5013331;28;20880;-79
2023/05/30 05:47:22;;;;;;;3.45;3.13;;;;;;;;;;5031053;28;20387;-79
2023/05/30 05:49:48;;;;;;;3.92;3.03;;;;;;;;;;5030895;28;20390;-79
2023/05/30 05:52:14;;;;;;;4.78;3.10;;;;;;;;;;5030933;28;20474;-78
2023/05/30 05:54:40;;;;;;;4.20;3.20;;;;;;;;;;5030950;28;20425;-79
2023/05/30 05:57:06;;;;;;;4.18;3.47;;;;;;;;;;5032665;28;20446;-79
2023/05/30 05:59:32;;;;;;;3.53;3.00;;;;;;;;;;5034608;28;20399;-79
2023/05/30 06:01:58;;;;;;;4.35;3.15;;;;;;;;;;5032988;28;20525;-79
2023/05/30 06:04:25;;;;;;;3.33;3.00;;;;;;;;;;5034539;28;20402;-78
2023/05/30 06:06:51;;;;;;;5.10;3.72;;;;;;;;;;5023936;28;20389;-80
2023/05/30 06:09:17;;;;;;;8.57;3.83;;;;;;;;;;5034258;28;20387;-79
2023/05/30 06:11:43;;;;;;;4.30;3.47;;;;;;;;;;5034354;28;20410;-80
2023/05/30 06:14:09;;;;;;;3.45;3.15;;;;;;;;;;5034174;28;20390;-80
2023/05/30 06:16:35;;;;;;;3.92;3.13;;;;;;;;;;5034201;28;20456;-80
2023/05/30 06:19:01;;;;;;;3.97;3.40;;;;;;;;;;5034032;28;20384;-79
2023/05/30 06:21:27;;;;;;;4.53;3.30;;;;;;;;;;5033925;28;20458;-80
2023/05/30 06:23:53;;;;;;;4.57;3.60;;;;;;;;;;5016170;28;20983;-80
2023/05/30 06:26:19;;;;;;;4.43;3.30;;;;;;;;;;5033715;28;20481;-80
2023/05/30 06:28:51;;;;;;;6.95;3.47;;;;;;;;;;5033898;28;20395;-80
2023/05/30 06:31:17;;;;;;;5.45;3.65;;;;;;;;;;5033882;28;20390;-80
2023/05/30 06:33:43;;;;;;;4.32;3.38;;;;;;;;;;5033647;28;20403;-80
2023/05/30 06:36:10;;;;;;;5.30;3.20;;;;;;;;;;5033685;28;20418;-80
2023/05/30 06:38:36;;;;;;;4.15;3.28;;;;;;;;;;5032465;28;20889;-80
2023/05/30 06:41:02;;;;;;;4.10;3.30;;;;;;;;;;5033849;28;20529;-80
2023/05/30 06:43:28;;;;;;;3.87;3.47;;;;;;;;;;5015824;28;20398;-79
2023/05/30 06:45:54;;;;;;;4.53;3.30;;;;;;;;;;5033608;28;20916;-80
2023/05/30 06:48:20;;;;;;;3.72;3.22;;;;;;;;;;5033594;28;20393;-80
2023/05/30 06:50:46;;;;;;;4.53;3.58;;;;;;;;;;5033642;28;20421;-80
2023/05/30 06:53:12;;;;;;;3.38;3.08;;;;;;;;;;5033381;28;20383;-80
2023/05/30 06:55:38;;;;;;;4.23;3.30;;;;;;;;;;5033451;28;20833;-80
2023/05/30 06:58:07;;;;;;;4.10;3.60;;;;;;;;;;5015658;28;20465;-80
2023/05/30 07:00:33;;;;;;;3.90;3.40;;;;;;;;;;5033396;28;20445;-81
2023/05/30 07:03:03;;;;;;;5.30;3.38;;;;;;;;;;5033376;28;20467;-80
2023/05/30 07:05:29;;;;;;;6.00;3.50;;;;;;;;;;5015385;28;20811;-80
2023/05/30 07:07:55;;;;;;;4.13;3.35;;;;;;;;;;5032683;28;20429;-79
2023/05/30 07:10:21;;;;;;;5.68;3.33;;;;;;;;;;5033108;28;20751;-80
2023/05/30 07:12:47;;;;;;;3.53;3.05;;;;;;;;;;5033164;28;20391;-80
2023/05/30 07:15:13;;;;;;;4.95;3.45;;;;;;;;;;5033389;28;20452;-80
2023/05/30 07:17:40;;;;;;;4.97;3.50;;;;;;;;;;5033014;28;20410;-80
2023/05/30 07:20:06;;;;;;;4.72;3.45;;;;;;;;;;5033168;28;20721;-79
2023/05/30 07:22:32;;;;;;;5.00;3.40;;;;;;;;;;5014629;28;20456;-80
2023/05/30 07:24:58;;;;;;;4.45;3.78;;;;;;;;;;5015413;28;20935;-80
2023/05/30 07:27:24;;;;;;;5.60;3.70;;;;;;;;;;5032853;28;20868;-80
2023/05/30 07:29:50;;;;;;;5.82;3.60;;;;;;;;;;5032905;28;20387;-79
2023/05/30 07:32:16;;;;;;;5.20;4.00;;;;;;;;;;5032650;28;20398;-80
2023/05/30 07:34:42;;;;;;;6.05;3.75;;;;;;;;;;5032950;28;20391;-81
2023/05/30 07:37:09;;;;;;;4.70;3.47;;;;;;;;;;5025769;28;20408;-80
2023/05/30 07:39:35;;;;;;;9.48;3.95;;;;;;;;;;5031015;28;20437;-80
2023/05/30 07:42:02;;;;;;;5.28;3.47;;;;;;;;;;5032635;28;20381;-81
2023/05/30 07:44:28;;;;;;;6.32;3.83;;;;;;;;;;5032647;28;20402;-80
2023/05/30 07:46:54;;;;;;;4.40;3.70;;;;;;;;;;5032525;28;20375;-79
2023/05/30 07:49:20;;;;;;;3.67;3.37;;;;;;;;;;5032431;28;20391;-81
2023/05/30 07:51:46;;;;;;;6.78;4.10;;;;;;;;;;5032481;28;20483;-80
2023/05/30 07:54:12;;;;;;;4.18;3.55;;;;;;;;;;5032328;28;20413;-81
2023/05/30 07:56:38;;;;;;;6.70;4.00;;;;;;;;;;5031879;28;20498;-81
2023/05/30 07:59:05;;;;;;;5.33;3.43;;;;;;;;;;5032355;28;20433;-80
2023/05/30 08:01:32;;;;;;;4.05;3.65;;;;;;;;;;5032240;28;20433;-80
2023/05/30 08:03:58;;;;;;;5.03;3.40;;;;;;;;;;5032026;28;20740;-80
2023/05/30 08:06:25;;;;;;;4.68;3.50;;;;;;;;;;5031046;28;20390;-80
2023/05/30 08:08:51;;;;;;;6.18;3.72;;;;;;;;;;5031697;28;20414;-80
2023/05/30 08:11:17;;;;;;;4.65;3.40;;;;;;;;;;5032059;28;20390;-80
2023/05/30 08:13:43;;;;;;;5.32;3.40;;;;;;;;;;5031674;28;20424;-80
2023/05/30 08:16:10;;;;;;;4.43;3.30;;;;;;;;;;5026818;28;20899;-79
2023/05/30 08:18:36;;;;;;;5.03;3.40;;;;;;;;;;5025750;28;20383;-79
2023/05/30 08:21:02;;;;;;;4.50;3.58;;;;;;;;;;5031062;28;20459;-79
2023/05/30 08:23:28;;;;;;;4.43;3.20;;;;;;;;;;5031809;28;20457;-79
2023/05/30 08:25:55;;;;;;;3.60;3.30;;;;;;;;;;5031070;28;20979;-77
2023/05/30 08:28:21;;;;;;;4.05;3.53;;;;;;;;;;5031916;28;20445;-79
2023/05/30 08:30:48;;;;;;;5.70;3.30;;;;;;;;;;5031675;28;20410;-79
2023/05/30 08:33:15;;;;;;;7.05;3.67;;;;;;;;;;5031334;28;20376;-80
2023/05/30 08:35:41;;;;;;;3.85;3.38;;;;;;;;;;5031397;28;20467;-79
2023/05/30 08:38:08;;;;;;;7.50;3.42;;;;;;;;;;5031499;28;20956;-79
2023/05/30 08:40:35;;;;;;;4.80;3.20;;;;;;;;;;5031882;28;20907;-78
2023/05/30 08:43:01;;;;;;;4.65;3.30;;;;;;;;;;5030668;28;20387;-77
2023/05/30 08:45:28;;;;;;;5.82;3.70;;;;;;;;;;5031198;28;20429;-79
2023/05/30 08:47:55;;;;;;;4.78;3.40;;;;;;;;;;5012719;28;20388;-76
2023/05/30 08:50:21;;;;;;;4.40;3.13;;;;;;;;;;5031326;28;20383;-77
2023/05/30 08:52:51;;;;;;;4.53;3.57;;;;;;;;;;5031429;28;20790;-77
2023/05/30 08:55:34;;;;;;;5.35;3.33;;;;;;;;;;5031255;28;20402;-79
2023/05/30 08:58:20;;;;;;;4.85;3.40;;;;;;;;;;5031414;28;20407;-78
2023/05/30 09:00:48;;;;;;;4.40;3.55;;;;;;;;;;5018485;28;20379;-79
2023/05/30 09:03:14;;;;;;;4.43;3.53;;;;;;;;;;5031256;28;20387;-79
2023/05/30 09:05:41;;;;;;;5.03;3.30;;;;;;;;;;5031294;28;20442;-79
2023/05/30 09:08:08;;;;;;;5.40;3.30;;;;;;;;;;5031289;28;20434;-78
2023/05/30 09:10:35;;;;;;;4.55;3.53;;;;;;;;;;5031339;28;20391;-78
2023/05/30 09:13:01;;;;;;;3.65;3.35;;;;;;;;;;5031298;28;20386;-76
2023/05/30 09:15:27;;;;;;;3.85;2.97;;;;;;;;;;5031101;28;20741;-77
2023/05/30 09:17:54;;;;;;;3.53;3.22;;;;;;;;;;5013516;28;20431;-77
2023/05/30 09:20:21;;;;;;;3.47;3.17;;;;;;;;;;5031187;28;20391;-77
2023/05/30 09:22:47;;;;;;;3.88;3.10;;;;;;;;;;5031097;28;20379;-77
2023/05/30 09:25:15;;;;;;;4.05;2.97;;;;;;;;;;5031142;28;20481;-77
2023/05/30 09:27:43;;;;;;;3.65;3.35;;;;;;;;;;5031018;28;20718;-77
2023/05/30 09:30:10;;;;;;;4.03;3.20;;;;;;;;;;5030558;28;20403;-77
2023/05/30 09:32:39;;;;;;;4.45;3.40;;;;;;;;;;5034507;28;20881;-77
2023/05/30 09:35:09;;;;;;;4.40;3.22;;;;;;;;;;5035084;28;20823;-77
2023/05/30 09:37:36;;;;;;;3.80;3.30;;;;;;;;;;5034273;28;20410;-77
2023/05/30 09:40:12;;;;;;;3.30;3.00;;;;;;;;;;5035075;28;20379;-77
2023/05/30 09:42:38;;;;;;;3.83;3.25;;;;;;;;;;5034741;28;20379;-77
2023/05/30 09:45:08;;;;;;;3.38;3.05;;;;;;;;;;5017382;28;21174;-77
2023/05/30 09:47:38;;;;;;;4.63;3.10;;;;;;;;;;5034770;28;20879;-77
2023/05/30 09:50:05;;;;;;;4.13;3.30;;;;;;;;;;5034754;28;20414;-77
2023/05/30 09:52:31;;;;;;;4.18;3.20;;;;;;;;;;5034542;28;20466;-78
2023/05/30 09:54:57;;;;;;;7.05;3.17;;;;;;;;;;5016715;28;20880;-77
2023/05/30 09:57:24;;;;;;;3.88;3.20;;;;;;;;;;5034451;28;20437;-78
2023/05/30 09:59:50;;;;;;;4.32;2.80;;;;;;;;;;5034644;28;20383;-78
2023/05/30 10:02:23;;;;;;;3.47;2.90;;;;;;;;;;5016611;28;20401;-77
2023/05/30 10:04:52;;;;;;;3.60;3.25;;;;;;;;;;5034216;28;20482;-77
2023/05/30 10:07:21;;;;;;;3.92;3.03;;;;;;;;;;5034473;28;20383;-77
2023/05/30 10:09:51;;;;;;;4.43;3.10;;;;;;;;;;5034357;28;20860;-77
2023/05/30 10:12:17;;;;;;;3.43;3.13;;;;;;;;;;5034206;28;20436;-77
2023/05/30 10:14:43;;;;;;;4.57;3.17;;;;;;;;;;5028198;28;20455;-77
2023/05/30 10:17:13;;;;;;;4.43;3.45;;;;;;;;;;5034295;28;20410;-77
2023/05/30 10:20:06;;;;;;;3.57;2.83;;;;;;;;;;5034234;28;20964;-77
2023/05/30 10:22:38;;;;;;;5.88;3.55;;;;;;;;;;5032295;28;20386;-77
2023/05/30 10:25:05;;;;;;;4.95;3.20;;;;;;;;;;5034037;28;20744;-78
2023/05/30 10:27:35;;;;;;;3.50;3.00;;;;;;;;;;5033777;28;20422;-78
2023/05/30 10:30:05;;;;;;;4.18;3.20;;;;;;;;;;5033960;28;20387;-78
2023/05/30 10:32:33;;;;;;;4.88;2.90;;;;;;;;;;5034000;28;20410;-78
2023/05/30 10:35:08;;;;;;;3.38;2.95;;;;;;;;;;5006434;28;20752;-78
2023/05/30 10:37:35;;;;;;;4.55;3.30;;;;;;;;;;5032830;28;20422;-78
2023/05/30 10:40:01;;;;;;;3.17;2.95;;;;;;;;;;5034004;28;20379;-78
2023/05/30 10:42:35;;;;;;;3.40;3.10;;;;;;;;;;5032536;28;20787;-78
2023/05/30 10:45:17;;;;;;;4.65;2.88;;;;;;;;;;5033595;28;20438;-78
2023/05/30 10:48:10;;;;;;;4.95;2.88;;;;;;;;;;5033785;28;20415;-78
2023/05/30 10:50:40;;;;;;;3.90;3.33;;;;;;;;;;5027753;28;20436;-79
2023/05/30 10:53:17;;;;;;;5.10;3.25;;;;;;;;;;5033681;28;20375;-79
2023/05/30 10:55:43;;;;;;;4.15;2.95;;;;;;;;;;5020820;28;20399;-79
2023/05/30 10:58:28;;;;;;;3.55;3.10;;;;;;;;;;5031718;28;20419;-79
2023/05/30 11:00:54;;;;;;;4.03;3.30;;;;;;;;;;5033281;28;20872;-78
2023/05/30 11:03:49;;;;;;;3.80;3.13;;;;;;;;;;5026902;28;20437;-78
2023/05/30 11:06:15;;;;;;;5.03;3.20;;;;;;;;;;4998305;28;20405;-76
2023/05/30 11:08:41;;;;;;;4.32;3.42;;;;;;;;;;5026463;28;20464;-78
2023/05/30 11:11:17;;;;;;;4.03;3.05;;;;;;;;;;5014355;28;20426;-77
2023/05/30 11:13:51;;;;;;;4.30;3.40;;;;;;;;;;5027211;28;20392;-76
2023/05/30 11:16:21;;;;;;;5.75;3.25;;;;;;;;;;5027058;28;20432;-76
2023/05/30 11:18:51;;;;;;;3.95;3.00;;;;;;;;;;5026524;28;20381;-76
2023/05/30 11:21:37;;;;;;;3.57;3.27;;;;;;;;;;5032995;28;20449;-77
2023/05/30 11:24:04;;;;;;;4.30;3.10;;;;;;;;;;5019221;28;20467;-77
2023/05/30 11:26:50;;;;;;;5.73;3.20;;;;;;;;;;5019355;28;20442;-76
2023/05/30 11:29:33;;;;;;;4.53;3.10;;;;;;;;;;5011272;28;20422;-76
2023/05/30 11:31:59;;;;;;;4.65;3.13;;;;;;;;;;5022506;28;20386;-77
2023/05/30 11:34:25;;;;;;;4.20;3.00;;;;;;;;;;5023623;28;20388;-77
2023/05/30 11:36:52;;;;;;;4.32;2.97;;;;;;;;;;5023320;28;20461;-77
2023/05/30 11:39:21;;;;;;;4.03;3.00;;;;;;;;;;5031638;28;20880;-77
2023/05/30 11:41:48;;;;;;;3.70;3.22;;;;;;;;;;5032731;28;20383;-77
2023/05/30 11:44:15;;;;;;;4.57;3.15;;;;;;;;;;5012059;28;20385;-76
2023/05/30 11:46:41;;;;;;;3.53;3.00;;;;;;;;;;5032465;28;20391;-76
2023/05/30 11:49:07;;;;;;;3.95;3.10;;;;;;;;;;5032381;28;20375;-77
2023/05/30 11:51:33;;;;;;;3.38;2.92;;;;;;;;;;5032493;28;20717;-76
2023/05/30 11:54:01;;;;;;;3.15;2.90;;;;;;;;;;5032192;28;20410;-76
2023/05/30 11:56:29;;;;;;;3.80;3.00;;;;;;;;;;5010936;28;20429;-77
2023/05/30 11:58:55;;;;;;;3.78;3.00;;;;;;;;;;5012611;28;20393;-77
2023/05/30 12:01:23;;;;;;;3.97;2.83;;;;;;;;;;5010929;28;20478;-77
2023/05/30 12:03:49;;;;;;;2.90;2.70;;;;;;;;;;5012361;28;20385;-78
2023/05/30 12:06:15;;;;;;;5.03;3.25;;;;;;;;;;5012441;28;20419;-77
2023/05/30 12:08:42;;;;;;;3.67;2.63;;;;;;;;;;5012285;28;20965;-77
2023/05/30 12:11:12;;;;;;;4.10;2.85;;;;;;;;;;5012778;28;20415;-77
2023/05/30 12:13:37;;;;;;;3.20;2.60;;;;;;;;;;5011753;28;20797;-78
2023/05/30 12:16:04;;;;;;;4.70;2.67;;;;;;;;;;5005109;28;20394;-78
2023/05/30 12:18:32;;;;;;;3.60;2.60;;;;;;;;;;4995290;28;20501;-78
2023/05/30 12:21:01;;;;;;;4.15;2.90;;;;;;;;;;5010400;28;20794;-78
2023/05/30 12:23:27;;;;;;;2.95;2.67;;;;;;;;;;5006702;28;20402;-78
2023/05/30 12:25:54;;;;;;;3.67;2.88;;;;;;;;;;5010062;28;20950;-77
2023/05/30 12:28:20;;;;;;;3.30;2.95;;;;;;;;;;5012040;28;20396;-78
2023/05/30 12:30:47;;;;;;;3.20;2.50;;;;;;;;;;5008012;28;20408;-79
2023/05/30 12:33:13;;;;;;;2.97;2.60;;;;;;;;;;5009351;28;20397;-78
2023/05/30 12:35:41;;;;;;;4.35;2.85;;;;;;;;;;5012658;28;20393;-79
2023/05/30 12:38:07;;;;;;;3.40;2.83;;;;;;;;;;5011801;28;20408;-79
2023/05/30 12:40:33;;;;;;;3.60;3.30;;;;;;;;;;5008268;28;20404;-83
2023/05/30 12:42:59;;;;;;;3.13;2.83;;;;;;;;;;5011548;28;20395;-83
2023/05/30 12:45:25;;;;;;;3.35;2.95;;;;;;;;;;5010833;28;20872;-83
2023/05/30 12:47:51;;;;;;;3.22;2.97;;;;;;;;;;5011711;28;20388;-82
2023/05/30 12:50:17;;;;;;;3.70;2.90;;;;;;;;;;5011575;28;20419;-82
2023/05/30 12:52:43;;;;;;;3.50;3.20;;;;;;;;;;5011075;28;20417;-83
2023/05/30 12:55:12;;;;;;;3.88;3.42;;;;;;;;;;5011770;28;20868;-83
2023/05/30 12:57:38;;;;;;;5.88;3.20;;;;;;;;;;5031079;28;20903;-83
2023/05/30 13:00:04;;;;;;;3.90;3.00;;;;;;;;;;5031632;28;20387;-82
2023/05/30 13:02:31;;;;;;;3.30;3.00;;;;;;;;;;5031346;28;20418;-82
2023/05/30 13:04:57;;;;;;;3.30;3.00;;;;;;;;;;5031230;28;20375;-82
2023/05/30 13:07:23;;;;;;;3.63;3.20;;;;;;;;;;5030899;28;20718;-82
2023/05/30 13:09:49;;;;;;;3.50;2.90;;;;;;;;;;5031325;28;20395;-82
2023/05/30 13:12:16;;;;;;;3.38;3.08;;;;;;;;;;5031107;28;20445;-82
2023/05/30 13:14:43;;;;;;;3.17;2.80;;;;;;;;;;5031307;28;20428;-83
2023/05/30 13:17:09;;;;;;;3.30;2.92;;;;;;;;;;5031033;28;20414;-83
2023/05/30 13:19:36;;;;;;;3.33;3.03;;;;;;;;;;5031286;28;20383;-83
2023/05/30 13:22:02;;;;;;;3.38;2.85;;;;;;;;;;5031120;28;20383;-83
2023/05/30 13:24:30;;;;;;;4.88;2.90;;;;;;;;;;5031224;28;20378;-83
2023/05/30 13:26:56;;;;;;;4.03;3.28;;;;;;;;;;5031335;28;20509;-83
2023/05/30 13:29:22;;;;;;;3.67;3.00;;;;;;;;;;5013443;28;20481;-83
2023/05/30 13:31:48;;;;;;;3.05;2.85;;;;;;;;;;5031034;28;20406;-82
2023/05/30 13:34:15;;;;;;;3.30;3.00;;;;;;;;;;5030987;28;20537;-82
2023/05/30 13:36:41;;;;;;;4.80;3.10;;;;;;;;;;5031054;28;20980;-82
2023/05/30 13:39:08;;;;;;;3.30;2.97;;;;;;;;;;5030941;28;20382;-82
2023/05/30 13:41:35;;;;;;;3.90;2.90;;;;;;;;;;5030923;28;20410;-82
2023/05/30 13:44:01;;;;;;;3.53;3.22;;;;;;;;;;5030650;28;20386;-82
2023/05/30 13:46:27;;;;;;;4.55;3.20;;;;;;;;;;5030833;28;20474;-82
2023/05/30 13:48:53;;;;;;;4.28;3.20;;;;;;;;;;5031023;28;20391;-81
2023/05/30 13:51:19;;;;;;;3.22;2.92;;;;;;;;;;5030931;28;20856;-83
2023/05/30 13:53:46;;;;;;;3.45;3.10;;;;;;;;;;5030837;28;20813;-82
2023/05/30 13:56:12;;;;;;;4.97;2.90;;;;;;;;;;5030543;28;20415;-83
2023/05/30 13:58:38;;;;;;;4.47;3.17;;;;;;;;;;5030855;28;20395;-82
2023/05/30 14:01:04;;;;;;;4.05;3.00;;;;;;;;;;5013179;28;20414;-82
2023/05/30 14:03:30;;;;;;;3.67;3.10;;;;;;;;;;5030598;28;20772;-82
2023/05/30 14:05:56;;;;;;;4.43;3.33;;;;;;;;;;5030866;28;20390;-82
2023/05/30 14:08:23;;;;;;;3.42;3.13;;;;;;;;;;5030613;28;20390;-82
2023/05/30 14:10:50;;;;;;;3.25;2.92;;;;;;;;;;5030670;28;20395;-82
2023/05/30 14:13:16;;;;;;;5.43;2.95;;;;;;;;;;5030498;28;20386;-83
2023/05/30 14:15:43;;;;;;;3.45;2.80;;;;;;;;;;5030359;28;20931;-83
2023/05/30 14:18:09;;;;;;;3.22;3.03;;;;;;;;;;5033275;28;20516;-82
2023/05/30 14:20:35;;;;;;;3.33;3.03;;;;;;;;;;5034352;28;20395;-82
2023/05/30 14:23:02;;;;;;;3.92;2.90;;;;;;;;;;5034100;28;20379;-82
2023/05/30 14:25:28;;;;;;;3.28;3.00;;;;;;;;;;5033954;28;20387;-82
2023/05/30 14:27:54;;;;;;;3.83;2.88;;;;;;;;;;5034107;28;20391;-82
2023/05/30 14:30:20;;;;;;;3.65;3.00;;;;;;;;;;5034048;28;20482;-82
2023/05/30 14:32:46;;;;;;;3.97;3.20;;;;;;;;;;5016603;28;20540;-82
2023/05/30 14:35:13;;;;;;;3.30;3.00;;;;;;;;;;5033608;28;20470;-82
2023/05/30 14:37:39;;;;;;;3.40;2.90;;;;;;;;;;5033732;28;20863;-82
2023/05/30 14:40:05;;;;;;;3.63;3.22;;;;;;;;;;5033999;28;20399;-82
2023/05/30 14:42:31;;;;;;;4.22;2.75;;;;;;;;;;5033624;28;20379;-82
2023/05/30 14:44:57;;;;;;;3.00;2.80;;;;;;;;;;5015701;28;20444;-82